Time;durP1;ratioP1;P1;durP2;ratioP2;P2;SDS_P1;SDS_P2;PMS_P1;PMS_P2;Temp;Humidity;BMP_temperature;BMP_pressure;BME280_temperature;BME280_humidity;BME280_pressure;Samples;Min_cycle;Max_cycle;Signal;HPM_P1;HPM_P2
2024/04/02 00:00:48;;;;;;;1.35;0.10;;;10.80;96.40;;;;;;5015142;28;20037;-65
2024/04/02 00:03:14;;;;;;;0.63;0.10;;;10.80;96.60;;;;;;5015099;28;20040;-65
2024/04/02 00:05:41;;;;;;;1.13;0.10;;;10.80;96.50;;;;;;5020617;28;20037;-65
2024/04/02 00:08:08;;;;;;;0.08;0.00;;;10.80;96.40;;;;;;5015683;28;24875;-65
2024/04/02 00:10:36;;;;;;;0.60;0.10;;;10.80;96.30;;;;;;5040103;28;20036;-65
2024/04/02 00:13:01;;;;;;;;;;;10.70;96.40;;;;;;5021019;28;20040;-65
2024/04/02 00:15:27;;;;;;;2.92;0.30;;;10.70;96.30;;;;;;5001714;28;19909;-65
2024/04/02 00:17:53;;;;;;;0.65;0.10;;;10.60;96.30;;;;;;5019489;28;20045;-66
2024/04/02 00:20:20;;;;;;;1.45;0.10;;;10.60;96.40;;;;;;5017130;28;20457;-65
2024/04/02 00:22:45;;;;;;;1.27;0.10;;;10.60;96.50;;;;;;5029108;28;20017;-65
2024/04/02 00:25:11;;;;;;;1.92;0.10;;;10.60;96.60;;;;;;5015329;28;20055;-65
2024/04/02 00:27:37;;;;;;;0.13;0.08;;;10.60;96.50;;;;;;5016986;28;20473;-65
2024/04/02 00:30:04;;;;;;;0.28;0.03;;;10.60;96.40;;;;;;5012347;28;20117;-66
2024/04/02 00:32:30;;;;;;;0.13;0.03;;;10.60;96.40;;;;;;4996681;28;20033;-65
2024/04/02 00:34:56;;;;;;;0.10;0.05;;;10.60;96.30;;;;;;4996836;28;20381;-65
2024/04/02 00:37:21;;;;;;;0.32;0.10;;;10.60;96.50;;;;;;4991373;28;20509;-65
2024/04/02 00:39:47;;;;;;;0.57;0.03;;;10.60;96.30;;;;;;5002482;28;20539;-65
2024/04/02 00:42:13;;;;;;;1.30;0.10;;;10.60;96.10;;;;;;4998903;28;20041;-66
2024/04/02 00:44:38;;;;;;;0.17;0.03;;;10.60;96.20;;;;;;5007943;28;20199;-65
2024/04/02 00:47:13;;;;;;;1.33;0.10;;;10.50;96.20;;;;;;5024973;28;20117;-65
2024/04/02 00:49:40;;;;;;;2.55;0.17;;;10.60;96.00;;;;;;5016931;28;20237;-65
2024/04/02 00:52:06;;;;;;;2.17;0.10;;;10.50;96.10;;;;;;5016546;28;20048;-65
2024/04/02 00:54:33;;;;;;;0.38;0.10;;;10.50;96.10;;;;;;5003686;28;20029;-65
2024/04/02 00:56:59;;;;;;;1.38;0.10;;;10.50;96.20;;;;;;5004904;28;20029;-65
2024/04/02 00:59:24;;;;;;;1.38;0.20;;;10.50;96.10;;;;;;5016115;28;20049;-65
2024/04/02 01:01:50;;;;;;;1.42;0.08;;;10.40;96.30;;;;;;5019697;28;20044;-65
2024/04/02 01:04:17;;;;;;;0.20;0.10;;;10.40;96.40;;;;;;5006290;28;20034;-66
2024/04/02 01:06:44;;;;;;;0.75;0.10;;;10.50;96.40;;;;;;4981136;28;20429;-65
2024/04/02 01:09:10;;;;;;;0.80;0.20;;;10.50;96.30;;;;;;5016831;28;20057;-67
2024/04/02 01:11:36;;;;;;;0.00;0.00;;;10.50;96.30;;;;;;4997950;28;20033;-65
2024/04/02 01:14:02;;;;;;;3.42;0.20;;;10.60;96.30;;;;;;4970431;28;20369;-65
2024/04/02 01:16:28;;;;;;;0.80;0.10;;;10.60;96.20;;;;;;4926967;29;20035;-66
2024/04/02 01:18:54;;;;;;;1.27;0.20;;;10.60;96.10;;;;;;4933359;28;20166;-66
2024/04/02 01:21:20;;;;;;;0.20;0.00;;;10.60;96.20;;;;;;4923491;28;20043;-65
2024/04/02 01:23:46;;;;;;;0.00;0.00;;;10.60;96.10;;;;;;4907305;29;20032;-66
2024/04/02 01:26:12;;;;;;;0.50;0.00;;;10.50;96.00;;;;;;4903893;29;20063;-65
2024/04/02 01:28:38;;;;;;;0.00;0.00;;;10.60;96.10;;;;;;4935772;28;20046;-65
2024/04/02 01:31:04;;;;;;;3.78;0.20;;;10.50;96.10;;;;;;4937429;29;20055;-65
2024/04/02 01:33:30;;;;;;;0.55;0.10;;;10.50;96.00;;;;;;4938616;28;20059;-66
2024/04/02 01:35:56;;;;;;;0.13;0.00;;;10.50;95.90;;;;;;4938444;28;20449;-65
2024/04/02 01:38:21;;;;;;;0.65;0.00;;;10.40;96.10;;;;;;4954241;28;20054;-66
2024/04/02 01:40:47;;;;;;;0.52;0.10;;;10.50;96.10;;;;;;4942724;28;20097;-65
2024/04/02 01:43:13;;;;;;;0.73;0.10;;;10.50;96.00;;;;;;4951254;28;20031;-65
2024/04/02 01:45:38;;;;;;;1.25;0.00;;;10.50;96.10;;;;;;4950453;28;20394;-66
2024/04/02 01:48:10;;;;;;;0.40;0.10;;;10.50;96.10;;;;;;4936080;28;20382;-64
2024/04/02 01:50:36;;;;;;;1.15;0.08;;;10.40;96.20;;;;;;4938349;28;20035;-66
2024/04/02 01:53:02;;;;;;;0.77;0.20;;;10.40;96.40;;;;;;4954512;28;20042;-66
2024/04/02 01:55:27;;;;;;;0.80;0.10;;;10.50;96.20;;;;;;4944031;28;20046;-66
2024/04/02 01:57:53;;;;;;;0.15;0.05;;;10.50;96.40;;;;;;4925895;28;20456;-66
2024/04/02 02:00:18;;;;;;;1.05;0.10;;;10.50;96.50;;;;;;4931955;28;20054;-65
2024/04/02 02:02:44;;;;;;;1.77;0.20;;;10.50;96.60;;;;;;4906417;29;20040;-66
2024/04/02 02:05:10;;;;;;;1.90;0.00;;;10.60;96.50;;;;;;4894976;29;20048;-65
2024/04/02 02:07:35;;;;;;;0.77;0.10;;;10.60;96.60;;;;;;4887644;29;20056;-66
2024/04/02 02:10:01;;;;;;;0.13;0.00;;;10.70;96.50;;;;;;4906613;29;20047;-66
2024/04/02 02:12:34;;;;;;;0.17;0.00;;;10.70;96.60;;;;;;4912246;29;20035;-66
2024/04/02 02:14:59;;;;;;;0.90;0.20;;;10.70;96.40;;;;;;4884395;29;20476;-66
2024/04/02 02:17:25;;;;;;;1.30;0.00;;;10.70;96.50;;;;;;4907823;29;22082;-66
2024/04/02 02:19:50;;;;;;;0.45;0.00;;;10.70;96.40;;;;;;4888646;29;20045;-66
2024/04/02 02:22:16;;;;;;;0.20;0.05;;;10.70;96.50;;;;;;4878720;29;20067;-66
2024/04/02 02:24:41;;;;;;;1.02;0.17;;;10.70;96.60;;;;;;4886740;29;20127;-66
2024/04/02 02:27:07;;;;;;;0.73;0.15;;;10.70;96.70;;;;;;4889236;29;22974;-66
2024/04/02 02:29:35;;;;;;;1.02;0.20;;;10.80;96.50;;;;;;4883343;29;20048;-66
2024/04/02 02:32:01;;;;;;;0.75;0.10;;;10.80;96.20;;;;;;4862714;29;20128;-66
2024/04/02 02:34:26;;;;;;;7.18;0.40;;;10.80;96.30;;;;;;4854029;29;20181;-67
2024/04/02 02:36:52;;;;;;;0.25;0.00;;;10.80;95.80;;;;;;4847579;29;20160;-66
2024/04/02 02:42:24;;;;;;;0.10;0.00;;;10.70;95.80;;;;;;5136356;27;20130;-65
2024/04/02 02:44:52;;;;;;;1.00;0.10;;;10.70;95.90;;;;;;5109538;28;20031;-65
2024/04/02 02:47:18;;;;;;;0.15;0.00;;;10.60;95.90;;;;;;5107464;28;20035;-65
2024/04/02 02:49:44;;;;;;;0.52;0.00;;;10.60;96.00;;;;;;5118751;28;20028;-66
2024/04/02 02:52:10;;;;;;;0.32;0.00;;;10.60;96.00;;;;;;5117042;28;22510;-65
2024/04/02 02:54:35;;;;;;;0.10;0.00;;;10.70;95.90;;;;;;5107099;28;20081;-66
2024/04/02 02:57:01;;;;;;;0.00;0.00;;;10.60;95.80;;;;;;5109556;28;20385;-66
2024/04/02 02:59:26;;;;;;;1.20;0.10;;;10.60;96.10;;;;;;5104650;28;20024;-66
2024/04/02 03:01:52;;;;;;;0.70;0.00;;;10.70;95.80;;;;;;5107503;28;20046;-66
2024/04/02 03:04:18;;;;;;;0.00;0.00;;;10.60;95.90;;;;;;5111237;28;20036;-65
2024/04/02 03:06:43;;;;;;;1.45;0.20;;;10.70;96.00;;;;;;5121045;28;20027;-65
2024/04/02 03:09:10;;;;;;;0.10;0.00;;;10.70;95.70;;;;;;5111201;28;20028;-65
2024/04/02 03:11:36;;;;;;;5.68;0.20;;;10.70;95.90;;;;;;5140329;27;20051;-67
2024/04/02 03:14:08;;;;;;;0.03;0.00;;;10.70;95.90;;;;;;5124991;27;20474;-65
2024/04/02 03:16:34;;;;;;;0.55;0.10;;;10.80;95.90;;;;;;5142271;27;20019;-65
2024/04/02 03:18:59;;;;;;;0.47;0.00;;;10.80;95.90;;;;;;5134706;27;20026;-65
2024/04/02 03:21:25;;;;;;;0.55;0.03;;;10.80;96.00;;;;;;5126922;27;20027;-65
2024/04/02 03:23:50;;;;;;;0.25;0.00;;;10.80;96.00;;;;;;5142121;27;20474;-65
2024/04/02 03:26:16;;;;;;;0.10;0.10;;;10.80;95.80;;;;;;5113604;27;20466;-65
2024/04/02 03:28:41;;;;;;;0.80;0.10;;;10.80;95.90;;;;;;5134183;27;20027;-66
2024/04/02 03:31:08;;;;;;;0.08;0.00;;;10.80;96.10;;;;;;5141625;27;20035;-66
2024/04/02 03:33:34;;;;;;;2.33;0.10;;;10.90;96.10;;;;;;5145807;27;20469;-66
2024/04/02 03:36:02;;;;;;;1.20;0.10;;;10.90;96.00;;;;;;5148877;27;20057;-65
2024/04/02 03:38:28;;;;;;;0.35;0.05;;;10.90;95.50;;;;;;5159063;27;20022;-65
2024/04/02 03:40:53;;;;;;;0.50;0.00;;;10.80;95.60;;;;;;5139867;27;20038;-66
2024/04/02 03:43:19;;;;;;;0.00;0.00;;;10.80;95.70;;;;;;5155686;27;20027;-66
2024/04/02 03:45:45;;;;;;;0.82;0.08;;;10.70;95.50;;;;;;5161603;27;20065;-66
2024/04/02 03:48:11;;;;;;;0.22;0.10;;;10.60;95.80;;;;;;5144609;27;20033;-66
2024/04/02 03:50:37;;;;;;;0.35;0.00;;;10.50;96.00;;;;;;5148512;27;20031;-66
2024/04/02 03:53:04;;;;;;;0.10;0.08;;;10.50;96.00;;;;;;5138889;27;20039;-65
2024/04/02 03:55:36;;;;;;;0.70;0.08;;;10.50;96.10;;;;;;5155353;27;20023;-66
2024/04/02 03:58:04;;;;;;;0.17;0.00;;;10.50;96.20;;;;;;5149594;27;20038;-66
2024/04/02 04:00:42;;;;;;;0.50;0.10;;;10.50;96.10;;;;;;5131137;27;20123;-67
2024/04/02 04:03:08;;;;;;;0.52;0.08;;;10.50;96.40;;;;;;5141429;27;20475;-66
2024/04/02 04:05:33;;;;;;;0.30;0.10;;;10.50;96.30;;;;;;5142926;27;20031;-65
2024/04/02 04:07:59;;;;;;;0.45;0.00;;;10.50;96.30;;;;;;5136268;27;20037;-66
2024/04/02 04:10:24;;;;;;;0.38;0.10;;;10.50;96.30;;;;;;5137014;27;20343;-64
2024/04/02 04:12:50;;;;;;;0.65;0.10;;;10.50;96.50;;;;;;5141150;27;20106;-65
2024/04/02 04:15:22;;;;;;;0.25;0.00;;;10.40;96.60;;;;;;5148433;27;20027;-65
2024/04/02 04:17:48;;;;;;;0.10;0.00;;;10.40;96.80;;;;;;5138469;27;20026;-65
2024/04/02 04:20:13;;;;;;;0.68;0.13;;;10.40;96.80;;;;;;5130171;27;20380;-64
2024/04/02 04:22:39;;;;;;;0.32;0.10;;;10.30;97.00;;;;;;5137909;27;21419;-66
2024/04/02 04:25:05;;;;;;;0.88;0.08;;;10.40;97.00;;;;;;5144003;27;20062;-66
2024/04/02 04:27:32;;;;;;;0.00;0.00;;;10.40;97.10;;;;;;5115581;28;20057;-66
2024/04/02 04:30:01;;;;;;;1.65;0.20;;;10.40;96.90;;;;;;5134416;27;20126;-65
2024/04/02 04:32:27;;;;;;;0.40;0.10;;;10.50;97.00;;;;;;5144823;27;20361;-65
2024/04/02 04:34:52;;;;;;;2.40;0.20;;;10.50;97.30;;;;;;5155074;27;20022;-65
2024/04/02 04:37:18;;;;;;;1.95;0.20;;;10.60;97.00;;;;;;5152640;27;20122;-66
2024/04/02 04:39:44;;;;;;;0.25;0.03;;;10.60;96.80;;;;;;5135587;27;20058;-65
2024/04/02 04:42:10;;;;;;;1.10;0.10;;;10.70;96.70;;;;;;5135099;27;20481;-65
2024/04/02 04:44:35;;;;;;;1.77;0.13;;;10.70;96.70;;;;;;5133446;27;20031;-65
2024/04/02 04:47:01;;;;;;;1.13;0.20;;;10.70;96.70;;;;;;5119306;27;20037;-65
2024/04/02 04:49:26;;;;;;;1.33;0.10;;;10.70;96.70;;;;;;5145901;27;20035;-64
2024/04/02 04:51:52;;;;;;;1.02;0.10;;;10.70;96.60;;;;;;5131721;28;20031;-66
2024/04/02 04:54:17;;;;;;;0.43;0.05;;;10.70;96.70;;;;;;5131369;27;20046;-65
2024/04/02 04:56:43;;;;;;;1.55;0.10;;;10.80;96.70;;;;;;5130493;27;20070;-65
2024/04/02 04:59:08;;;;;;;4.47;0.30;;;10.80;96.80;;;;;;5145398;27;20495;-64
2024/04/02 05:01:34;;;;;;;0.25;0.08;;;10.90;96.80;;;;;;5151981;27;20537;-65
2024/04/02 05:03:59;;;;;;;1.25;0.20;;;11.00;96.90;;;;;;5148821;27;20030;-65
2024/04/02 05:06:25;;;;;;;1.45;0.20;;;11.00;97.00;;;;;;5122100;27;20031;-66
2024/04/02 05:08:51;;;;;;;1.55;0.10;;;11.10;96.50;;;;;;5126030;27;20110;-66
2024/04/02 05:11:16;;;;;;;0.30;0.10;;;11.00;96.40;;;;;;5113857;28;20075;-65
2024/04/02 05:13:42;;;;;;;1.83;0.20;;;11.00;96.60;;;;;;5079846;28;20031;-66
2024/04/02 05:16:14;;;;;;;1.00;0.20;;;11.10;96.80;;;;;;5107647;28;20050;-65
2024/04/02 05:18:40;;;;;;;1.10;0.10;;;11.20;96.90;;;;;;5123581;28;20027;-65
2024/04/02 05:21:05;;;;;;;1.80;0.20;;;11.20;96.80;;;;;;5124718;28;20040;-66
2024/04/02 05:23:31;;;;;;;0.10;0.00;;;11.30;96.60;;;;;;5112011;28;20104;-66
2024/04/02 05:26:00;;;;;;;0.25;0.05;;;11.20;96.60;;;;;;5113006;28;20492;-66
2024/04/02 05:28:26;;;;;;;0.90;0.20;;;11.20;96.60;;;;;;5097389;28;20075;-65
2024/04/02 05:30:52;;;;;;;0.10;0.00;;;11.30;96.60;;;;;;5112068;27;20027;-65
2024/04/02 05:33:18;;;;;;;0.47;0.10;;;11.30;96.10;;;;;;5139569;27;20046;-66
2024/04/02 05:35:45;;;;;;;0.60;0.10;;;11.30;96.10;;;;;;5108891;28;20031;-66
2024/04/02 05:38:11;;;;;;;1.42;0.20;;;11.20;96.20;;;;;;5135645;27;20031;-66
2024/04/02 05:40:38;;;;;;;2.85;0.20;;;11.20;96.40;;;;;;5135652;27;20041;-66
2024/04/02 05:43:04;;;;;;;0.77;0.20;;;11.20;96.60;;;;;;5126540;27;20057;-65
2024/04/02 05:45:29;;;;;;;1.63;0.22;;;11.30;96.80;;;;;;5106454;28;20569;-65
2024/04/02 05:47:55;;;;;;;0.57;0.10;;;11.30;96.40;;;;;;5095536;28;20038;-65
2024/04/02 05:50:21;;;;;;;3.38;0.20;;;11.40;96.40;;;;;;5088208;27;20122;-65
2024/04/02 05:52:47;;;;;;;0.88;0.10;;;11.30;96.30;;;;;;5126098;27;20029;-65
2024/04/02 05:55:12;;;;;;;0.85;0.20;;;11.30;96.20;;;;;;5152903;27;20030;-65
2024/04/02 05:57:39;;;;;;;0.52;0.10;;;11.30;96.30;;;;;;5153398;27;20519;-65
2024/04/02 06:00:05;;;;;;;0.70;0.08;;;11.30;96.40;;;;;;5131568;27;20479;-64
2024/04/02 06:02:32;;;;;;;8.60;0.57;;;11.30;96.40;;;;;;5134198;27;20051;-66
2024/04/02 06:04:58;;;;;;;1.08;0.17;;;11.40;96.40;;;;;;5116188;28;20019;-66
2024/04/02 06:07:24;;;;;;;0.17;0.10;;;11.40;96.30;;;;;;5126095;27;20088;-65
2024/04/02 06:09:49;;;;;;;0.10;0.00;;;11.40;96.30;;;;;;5132841;27;20130;-66
2024/04/02 06:12:15;;;;;;;0.32;0.00;;;11.40;96.40;;;;;;5136902;27;20110;-65
2024/04/02 06:14:41;;;;;;;1.23;0.15;;;11.30;96.30;;;;;;5134170;27;20020;-65
2024/04/02 06:17:13;;;;;;;1.52;0.20;;;11.20;96.40;;;;;;5141089;27;20032;-65
2024/04/02 06:19:39;;;;;;;0.60;0.10;;;11.10;96.60;;;;;;5103178;27;20499;-65
2024/04/02 06:22:05;;;;;;;0.10;0.00;;;11.00;96.90;;;;;;5080571;28;20072;-64
2024/04/02 06:24:30;;;;;;;0.30;0.05;;;11.00;97.10;;;;;;5102091;27;20122;-65
2024/04/02 06:26:56;;;;;;;0.50;0.03;;;11.00;97.30;;;;;;5104551;28;20074;-65
2024/04/02 06:29:21;;;;;;;0.28;0.10;;;11.00;97.40;;;;;;5103944;27;20034;-65
2024/04/02 06:31:47;;;;;;;0.40;0.08;;;11.10;97.70;;;;;;5113010;28;20087;-67
2024/04/02 06:34:13;;;;;;;1.85;0.20;;;11.00;97.20;;;;;;5116238;27;20043;-65
2024/04/02 06:36:38;;;;;;;1.02;0.25;;;10.90;97.40;;;;;;5081974;28;20035;-65
2024/04/02 06:39:04;;;;;;;1.10;0.28;;;10.90;97.70;;;;;;5123620;28;20023;-65
2024/04/02 06:41:30;;;;;;;0.47;0.10;;;10.90;97.60;;;;;;5097078;28;20540;-65
2024/04/02 06:43:55;;;;;;;0.10;0.00;;;10.90;97.70;;;;;;5090753;28;20039;-66
2024/04/02 06:46:24;;;;;;;0.45;0.13;;;10.80;97.70;;;;;;5074758;28;20123;-66
2024/04/02 06:48:49;;;;;;;1.48;0.20;;;10.80;97.80;;;;;;5076830;28;20111;-66
2024/04/02 06:51:21;;;;;;;0.20;0.10;;;10.80;98.00;;;;;;5105362;27;20125;-66
2024/04/02 06:53:47;;;;;;;0.88;0.10;;;10.80;98.00;;;;;;5116507;28;20115;-66
2024/04/02 06:56:13;;;;;;;0.47;0.05;;;10.80;98.30;;;;;;5129757;28;20123;-66
2024/04/02 06:58:38;;;;;;;4.38;0.32;;;10.90;98.10;;;;;;5130636;27;20130;-65
2024/04/02 07:01:04;;;;;;;1.08;0.10;;;10.90;97.80;;;;;;5124754;27;20088;-66
2024/04/02 07:03:30;;;;;;;0.55;0.10;;;11.00;97.90;;;;;;5125242;27;20076;-66
2024/04/02 07:05:55;;;;;;;0.10;0.00;;;11.00;97.90;;;;;;5138210;27;20130;-67
2024/04/02 07:08:24;;;;;;;1.00;0.00;;;10.90;97.60;;;;;;5132469;27;20100;-66
2024/04/02 07:10:58;;;;;;;0.00;0.00;;;11.00;97.80;;;;;;5128314;28;20055;-66
2024/04/02 07:13:25;;;;;;;;;;;11.10;97.90;;;;;;5130439;27;20131;-66
2024/04/02 07:15:50;;;;;;;0.17;0.00;;;11.10;97.60;;;;;;5115757;28;19950;-66
2024/04/02 07:18:16;;;;;;;1.23;0.10;;;11.20;97.50;;;;;;5127923;27;20035;-66
2024/04/02 07:20:41;;;;;;;0.40;0.03;;;11.20;97.50;;;;;;5134225;27;20039;-66
2024/04/02 07:23:08;;;;;;;3.58;0.20;;;11.50;98.00;;;;;;5125134;27;20035;-65
2024/04/02 07:25:33;;;;;;;1.08;0.10;;;11.80;98.10;;;;;;5092736;28;20055;-65
2024/04/02 07:27:59;;;;;;;1.27;0.10;;;12.10;97.10;;;;;;5101938;28;20039;-65
2024/04/02 07:30:24;;;;;;;2.28;0.10;;;12.40;96.40;;;;;;5129950;27;20087;-66
2024/04/02 07:32:52;;;;;;;1.15;0.10;;;12.40;95.60;;;;;;5132909;27;20338;-66
2024/04/02 07:35:17;;;;;;;0.73;0.10;;;12.40;95.70;;;;;;5092832;28;20360;-66
2024/04/02 07:37:43;;;;;;;2.30;0.17;;;12.40;95.20;;;;;;5090265;28;20034;-67
2024/04/02 07:40:09;;;;;;;3.60;0.25;;;12.30;95.10;;;;;;5111050;28;20039;-66
2024/04/02 07:42:34;;;;;;;0.00;0.00;;;12.10;95.10;;;;;;5093180;28;20140;-66
2024/04/02 07:45:00;;;;;;;0.00;0.00;;;11.90;95.20;;;;;;5126703;27;20110;-66
2024/04/02 07:47:26;;;;;;;2.05;0.10;;;12.00;95.60;;;;;;5130416;27;20054;-65
2024/04/02 07:49:51;;;;;;;0.32;0.03;;;12.10;95.50;;;;;;5105724;28;20084;-64
2024/04/02 07:52:23;;;;;;;1.10;0.03;;;12.30;95.40;;;;;;5082575;28;20031;-65
2024/04/02 07:54:49;;;;;;;0.85;0.10;;;12.40;94.90;;;;;;5088941;28;20032;-65
2024/04/02 07:57:14;;;;;;;0.60;0.00;;;12.50;95.10;;;;;;5103097;28;20044;-66
2024/04/02 07:59:40;;;;;;;3.00;0.20;;;12.50;94.60;;;;;;5089779;28;20114;-66
2024/04/02 08:02:05;;;;;;;1.45;0.10;;;12.40;94.10;;;;;;5100878;28;20059;-66
2024/04/02 08:04:31;;;;;;;2.17;0.10;;;12.40;93.90;;;;;;5112880;28;20095;-66
2024/04/02 08:06:57;;;;;;;0.30;0.10;;;12.40;94.30;;;;;;5111499;28;20031;-66
2024/04/02 08:09:22;;;;;;;1.08;0.00;;;12.60;94.30;;;;;;5128505;28;20489;-66
2024/04/02 08:11:48;;;;;;;1.55;0.20;;;12.70;93.50;;;;;;5131611;28;20054;-66
2024/04/02 08:14:21;;;;;;;0.90;0.17;;;12.70;92.80;;;;;;5130728;28;20106;-67
2024/04/02 08:16:46;;;;;;;0.30;0.00;;;12.60;93.60;;;;;;5131395;27;20149;-66
2024/04/02 08:19:13;;;;;;;2.13;0.20;;;12.60;94.00;;;;;;5139882;27;20031;-66
2024/04/02 08:21:39;;;;;;;0.93;0.10;;;12.70;92.70;;;;;;5136025;27;20039;-67
2024/04/02 08:24:04;;;;;;;0.15;0.00;;;12.60;93.10;;;;;;5130600;27;20027;-66
2024/04/02 08:26:30;;;;;;;1.30;0.28;;;12.50;92.80;;;;;;5131136;27;20027;-67
2024/04/02 08:28:56;;;;;;;0.90;0.08;;;12.60;93.20;;;;;;5125661;27;20066;-66
2024/04/02 08:31:21;;;;;;;1.73;0.15;;;12.70;92.50;;;;;;5107402;27;20023;-66
2024/04/02 08:33:47;;;;;;;1.77;0.22;;;12.80;92.70;;;;;;5131734;27;20029;-66
2024/04/02 08:36:20;;;;;;;1.85;0.10;;;12.90;93.10;;;;;;5129652;27;20085;-65
2024/04/02 08:38:47;;;;;;;4.95;0.22;;;13.00;92.30;;;;;;5128200;27;20027;-66
2024/04/02 08:41:12;;;;;;;0.40;0.00;;;13.00;92.00;;;;;;5127692;27;20043;-64
2024/04/02 08:43:43;;;;;;;0.82;0.13;;;12.90;91.80;;;;;;5131556;27;20491;-66
2024/04/02 08:46:09;;;;;;;10.40;0.70;;;12.90;92.10;;;;;;5130132;28;20031;-65
2024/04/02 08:48:35;;;;;;;1.00;0.10;;;12.80;91.70;;;;;;5130775;28;20099;-66
2024/04/02 08:51:04;;;;;;;0.35;0.00;;;12.70;91.70;;;;;;5125582;27;20023;-65
2024/04/02 08:53:33;;;;;;;5.15;0.22;;;12.60;91.60;;;;;;5126280;28;20461;-66
2024/04/02 08:55:59;;;;;;;0.08;0.00;;;12.40;91.90;;;;;;5132630;28;20346;-66
2024/04/02 08:58:27;;;;;;;0.43;0.10;;;12.40;92.30;;;;;;5129248;27;20027;-65
2024/04/02 09:00:56;;;;;;;0.57;0.10;;;12.50;92.70;;;;;;5128742;28;20099;-66
2024/04/02 09:03:23;;;;;;;0.85;0.00;;;12.50;91.80;;;;;;5126338;27;20042;-66
2024/04/02 09:05:48;;;;;;;3.83;0.20;;;12.50;91.80;;;;;;5119681;27;20026;-61
2024/04/02 09:08:14;;;;;;;0.00;0.00;;;12.60;91.90;;;;;;5129837;27;20042;-60
2024/04/02 09:10:46;;;;;;;0.95;0.08;;;12.70;91.80;;;;;;5151937;27;20027;-61
2024/04/02 09:13:12;;;;;;;1.90;0.15;;;12.80;91.60;;;;;;5152471;27;20435;-60
2024/04/02 09:15:38;;;;;;;1.75;0.17;;;12.70;91.10;;;;;;5151674;27;20098;-61
2024/04/02 09:18:04;;;;;;;3.15;0.20;;;12.60;91.00;;;;;;5152400;27;20031;-60
2024/04/02 09:20:33;;;;;;;2.85;0.20;;;12.60;91.50;;;;;;5142985;27;20043;-62
2024/04/02 09:22:59;;;;;;;0.98;0.08;;;12.60;91.00;;;;;;5131758;27;20072;-61
2024/04/02 09:25:26;;;;;;;0.57;0.00;;;12.80;91.20;;;;;;5129641;28;20088;-60
2024/04/02 09:27:52;;;;;;;1.38;0.10;;;12.80;90.60;;;;;;5132040;28;20027;-61
2024/04/02 09:30:18;;;;;;;1.10;0.08;;;12.90;90.80;;;;;;5095728;28;20049;-60
2024/04/02 09:32:45;;;;;;;0.52;0.03;;;13.00;90.70;;;;;;5096466;28;20028;-60
2024/04/02 09:35:44;;;;;;;6.22;0.30;;;13.10;89.50;;;;;;5147655;27;20091;-60
2024/04/02 09:38:12;;;;;;;1.90;0.20;;;13.20;89.00;;;;;;5152087;27;20037;-61
2024/04/02 09:40:39;;;;;;;0.88;0.00;;;13.20;88.50;;;;;;5152463;27;20035;-61
2024/04/02 09:43:06;;;;;;;1.77;0.00;;;13.10;89.20;;;;;;5135761;27;20035;-61
2024/04/02 09:45:32;;;;;;;0.55;0.00;;;13.00;90.20;;;;;;5147070;27;20030;-62
2024/04/02 09:47:59;;;;;;;0.00;0.00;;;13.00;90.30;;;;;;5145957;27;20027;-61
2024/04/02 09:50:25;;;;;;;2.13;0.20;;;13.00;90.40;;;;;;5128376;27;20460;-61
2024/04/02 09:52:51;;;;;;;2.30;0.20;;;13.00;90.20;;;;;;5129263;27;20059;-61
2024/04/02 09:55:19;;;;;;;0.68;0.10;;;13.10;90.60;;;;;;5128707;27;20034;-60
2024/04/02 09:57:45;;;;;;;8.65;0.40;;;13.30;90.10;;;;;;5126460;27;20122;-61
2024/04/02 10:00:18;;;;;;;0.28;0.00;;;13.40;90.20;;;;;;5128531;27;20080;-61
2024/04/02 10:02:44;;;;;;;4.68;0.30;;;13.70;90.00;;;;;;5129264;28;20073;-61
2024/04/02 10:05:19;;;;;;;0.00;0.00;;;14.00;90.80;;;;;;5128910;28;20493;-61
2024/04/02 10:07:50;;;;;;;0.90;0.10;;;14.20;90.00;;;;;;5123724;28;20039;-61
2024/04/02 10:10:16;;;;;;;0.17;0.00;;;14.40;89.50;;;;;;5128231;27;20027;-61
2024/04/02 10:12:42;;;;;;;0.20;0.10;;;14.50;88.30;;;;;;5141663;27;20031;-61
2024/04/02 10:15:12;;;;;;;2.20;0.20;;;14.40;86.50;;;;;;5131090;28;20477;-61
2024/04/02 10:17:38;;;;;;;0.70;0.00;;;14.20;87.10;;;;;;5131339;28;20462;-61
2024/04/02 10:20:29;;;;;;;0.10;0.00;;;14.10;88.40;;;;;;5131636;28;20027;-61
2024/04/02 10:22:55;;;;;;;0.70;0.00;;;14.10;87.80;;;;;;5131245;27;20482;-61
2024/04/02 10:25:28;;;;;;;0.10;0.00;;;14.00;87.10;;;;;;5126064;27;20027;-61
2024/04/02 10:27:59;;;;;;;0.65;0.08;;;14.00;88.60;;;;;;5128029;27;20461;-61
2024/04/02 10:30:33;;;;;;;1.00;0.10;;;14.20;87.80;;;;;;5128654;27;20072;-61
2024/04/02 10:32:58;;;;;;;0.47;0.03;;;14.30;88.10;;;;;;5128326;28;20035;-61
2024/04/02 10:35:25;;;;;;;0.25;0.00;;;14.50;89.70;;;;;;5143358;27;20493;-61
2024/04/02 10:37:53;;;;;;;0.63;0.15;;;14.50;87.50;;;;;;5149939;27;20026;-61
2024/04/02 10:40:19;;;;;;;0.10;0.00;;;14.50;87.30;;;;;;5133484;27;20075;-61
2024/04/02 10:42:47;;;;;;;0.43;0.10;;;14.30;88.20;;;;;;5146978;27;20119;-60
2024/04/02 10:45:13;;;;;;;;;;;14.30;88.80;;;;;;5151172;27;20114;-61
2024/04/02 10:47:52;;;;;;;0.90;0.00;;;14.10;89.00;;;;;;5128066;27;20250;-60
2024/04/02 10:50:22;;;;;;;0.65;0.00;;;13.90;90.30;;;;;;5118666;27;20034;-61
2024/04/02 10:52:48;;;;;;;0.52;0.10;;;13.80;90.90;;;;;;5142347;27;20369;-61
2024/04/02 10:55:14;;;;;;;3.17;0.20;;;13.80;91.80;;;;;;5128676;27;20038;-60
2024/04/02 10:57:41;;;;;;;0.00;0.00;;;13.80;92.40;;;;;;5126573;27;20146;-61
2024/04/02 11:00:14;;;;;;;1.65;0.00;;;13.80;92.50;;;;;;5150069;27;20081;-61
2024/04/02 11:02:41;;;;;;;3.65;0.38;;;13.80;93.30;;;;;;5150509;27;20037;-62
2024/04/02 11:05:16;;;;;;;1.00;0.05;;;13.90;93.70;;;;;;5127887;27;20112;-60
2024/04/02 11:07:43;;;;;;;2.60;0.20;;;13.90;94.20;;;;;;5140327;27;20031;-60
2024/04/02 11:10:09;;;;;;;1.05;0.10;;;13.90;94.60;;;;;;5149557;27;20031;-60
2024/04/02 11:12:35;;;;;;;0.50;0.00;;;13.90;94.80;;;;;;5154328;27;20030;-60
2024/04/02 11:15:01;;;;;;;3.13;0.08;;;14.10;94.80;;;;;;5149970;27;20042;-61
2024/04/02 11:17:27;;;;;;;1.15;0.03;;;14.10;93.90;;;;;;5135642;27;20106;-60
2024/04/02 11:19:53;;;;;;;0.75;0.00;;;14.00;93.70;;;;;;5137840;27;20037;-60
2024/04/02 11:25:14;;;;;;;0.65;0.10;;;13.50;93.70;;;;;;5132225;27;20103;-61
2024/04/02 11:27:43;;;;;;;0.32;0.03;;;13.40;94.30;;;;;;5130900;27;20370;-61
2024/04/02 11:30:21;;;;;;;0.17;0.10;;;13.30;94.30;;;;;;5131061;27;20133;-61
2024/04/02 11:32:47;;;;;;;0.00;0.00;;;13.10;94.10;;;;;;5127400;27;20031;-61
2024/04/02 11:35:15;;;;;;;0.77;0.10;;;12.90;94.40;;;;;;5134609;27;20035;-61
2024/04/02 11:37:41;;;;;;;0.00;0.00;;;12.90;95.80;;;;;;5137939;27;20111;-61
2024/04/02 11:40:10;;;;;;;0.05;0.00;;;12.90;95.30;;;;;;5139496;27;20369;-62
2024/04/02 11:42:36;;;;;;;0.70;0.10;;;12.90;95.70;;;;;;5130541;27;20110;-62
2024/04/02 11:45:03;;;;;;;0.22;0.00;;;12.90;95.00;;;;;;5130006;27;20117;-61
2024/04/02 11:47:30;;;;;;;1.48;0.20;;;12.80;95.00;;;;;;5128753;27;20031;-61
2024/04/02 11:49:55;;;;;;;1.80;0.08;;;12.80;96.00;;;;;;5131528;27;20047;-61
2024/04/02 11:52:21;;;;;;;0.00;0.00;;;12.80;95.50;;;;;;5146228;27;20556;-61
2024/04/02 11:54:47;;;;;;;2.15;0.10;;;12.90;95.30;;;;;;5132770;27;20031;-61
2024/04/02 12:00:17;;;;;;;0.10;0.00;;;12.80;94.90;;;;;;5139785;27;20034;-61
2024/04/02 12:02:48;;;;;;;0.38;0.08;;;12.70;94.90;;;;;;5128601;27;20039;-62
2024/04/02 12:05:15;;;;;;;0.00;0.00;;;12.70;94.40;;;;;;5109329;27;20106;-61
2024/04/02 12:07:42;;;;;;;0.35;0.00;;;12.80;93.90;;;;;;5128373;27;20023;-61
2024/04/02 12:10:09;;;;;;;1.60;0.10;;;12.80;94.40;;;;;;5111728;27;20370;-61
2024/04/02 12:12:42;;;;;;;0.00;0.00;;;12.90;94.10;;;;;;5132521;27;20335;-61
2024/04/02 12:15:09;;;;;;;0.00;0.00;;;12.80;93.90;;;;;;5132885;28;20046;-61
2024/04/02 12:17:40;;;;;;;0.32;0.00;;;12.80;94.50;;;;;;5117965;27;20027;-60
2024/04/02 12:20:07;;;;;;;1.55;0.20;;;12.80;94.40;;;;;;5139132;27;20117;-60
2024/04/02 12:22:33;;;;;;;0.25;0.00;;;13.00;94.30;;;;;;5137264;27;20053;-61
2024/04/02 12:24:59;;;;;;;1.80;0.00;;;13.20;94.30;;;;;;5130133;28;20474;-61
2024/04/02 12:27:24;;;;;;;3.05;0.20;;;13.50;94.60;;;;;;5141098;27;20370;-61
2024/04/02 12:29:54;;;;;;;0.55;0.00;;;13.70;94.00;;;;;;5132959;27;20118;-61
2024/04/02 12:32:20;;;;;;;1.17;0.10;;;13.90;93.30;;;;;;5134733;27;20111;-61
2024/04/02 12:34:48;;;;;;;1.92;0.15;;;14.00;91.90;;;;;;5129135;27;20073;-61
2024/04/02 12:37:14;;;;;;;0.52;0.00;;;13.90;91.20;;;;;;5134113;27;20023;-62
2024/04/02 12:39:41;;;;;;;1.25;0.10;;;13.70;91.00;;;;;;5113494;28;20027;-61
2024/04/02 12:42:08;;;;;;;0.93;0.00;;;13.60;92.10;;;;;;5130285;27;20046;-61
2024/04/02 12:44:34;;;;;;;0.68;0.00;;;13.40;92.30;;;;;;5139186;27;20030;-60
2024/04/02 12:47:00;;;;;;;0.00;0.00;;;13.40;92.70;;;;;;5134985;27;20027;-61
2024/04/02 12:49:26;;;;;;;0.00;0.00;;;13.30;92.00;;;;;;5141201;27;20026;-61
2024/04/02 12:51:52;;;;;;;0.03;0.00;;;13.30;92.00;;;;;;5151699;27;20014;-60
2024/04/02 12:54:18;;;;;;;0.85;0.10;;;13.50;91.00;;;;;;5129697;27;20130;-61